createdAt,value
2016-04-23T00:00:32.607Z,16.91
2016-04-23T00:01:32.594Z,16.56
2016-04-23T00:02:32.566Z,16.29
2016-04-23T00:03:32.568Z,16.24
2016-04-23T00:04:32.555Z,16.28
2016-04-23T00:05:32.543Z,16.31
2016-04-23T00:06:32.514Z,16.32
2016-04-23T00:07:32.516Z,16.31
2016-04-23T00:08:32.488Z,16.13
2016-04-23T00:09:32.475Z,16.28
2016-04-23T00:10:32.463Z,16.2
2016-04-23T00:11:32.449Z,16.26
2016-04-23T00:12:32.437Z,16.29
2016-04-23T00:13:32.423Z,16.31
2016-04-23T00:14:32.395Z,16.24
2016-04-23T00:15:32.382Z,16.29
2016-04-23T00:16:32.369Z,15.77
2016-04-23T00:17:32.356Z,15.72
2016-04-23T00:18:32.343Z,15.75
2016-04-23T00:19:32.331Z,15.73
2016-04-23T00:20:32.317Z,15.7
2016-04-23T00:21:32.304Z,15.88
2016-04-23T00:22:32.276Z,15.97
2016-04-23T00:23:32.263Z,15.88
2016-04-23T00:24:32.250Z,15.95
2016-04-23T00:25:32.081Z,15.91
2016-04-23T00:26:32.255Z,15.88
2016-04-23T00:27:32.211Z,15.92
2016-04-23T00:28:32.198Z,16.02
2016-04-23T00:29:32.169Z,15.84
2016-04-23T00:30:32.172Z,15.65
2016-04-23T00:31:32.144Z,15.73
2016-04-23T00:32:32.131Z,15.54
2016-04-23T00:33:32.102Z,15.82
2016-04-23T00:34:32.105Z,15.91
2016-04-23T00:35:32.092Z,15.82
2016-04-23T00:36:32.079Z,16
2016-04-23T00:37:32.051Z,15.91
2016-04-23T00:38:32.038Z,15.76
2016-04-23T00:39:32.040Z,15.73
2016-04-23T00:40:32.012Z,15.72
2016-04-23T00:41:31.983Z,15.68
2016-04-23T00:42:31.970Z,15.55
2016-04-23T00:43:31.973Z,15.55
2016-04-23T00:44:31.960Z,15.58
2016-04-23T00:45:31.963Z,15.73
2016-04-23T00:46:31.934Z,15.73
2016-04-23T00:47:31.906Z,15.82
2016-04-23T00:48:31.893Z,15.68
2016-04-23T00:49:31.879Z,15.67
2016-04-23T00:50:31.867Z,15.68
2016-04-23T00:51:31.838Z,15.68
2016-04-23T00:52:31.842Z,15.58
2016-04-23T00:53:31.812Z,15.57
2016-04-23T00:54:31.815Z,15.59
2016-04-23T00:55:31.786Z,15.62
2016-04-23T00:56:31.773Z,15.64
2016-04-23T00:57:31.761Z,15.67
2016-04-23T00:58:31.732Z,15.68
2016-04-23T00:59:31.703Z,15.67
2016-04-23T01:00:31.722Z,15.64
2016-04-23T01:01:31.694Z,15.67
2016-04-23T01:02:31.680Z,15.67
2016-04-23T01:03:31.666Z,15.58
2016-04-23T01:04:31.654Z,15.51
2016-04-23T01:05:31.627Z,15.36
2016-04-23T01:06:31.613Z,15.55
2016-04-23T01:07:31.615Z,15.61
2016-04-23T01:08:31.603Z,15.65
2016-04-23T01:09:31.574Z,15.72
2016-04-23T01:10:31.561Z,15.73
2016-04-23T01:11:31.532Z,15.65
2016-04-23T01:12:31.536Z,15.72
2016-04-23T01:13:31.523Z,15.76
2016-04-23T01:14:31.493Z,15.68
2016-04-23T01:15:31.481Z,15.65
2016-04-23T01:16:31.467Z,15.79
2016-04-23T01:17:31.455Z,15.7
2016-04-23T01:18:31.442Z,15.68
2016-04-23T01:19:31.414Z,15.73
2016-04-23T01:20:31.401Z,15.68
2016-04-23T01:21:31.388Z,15.75
2016-04-23T01:22:31.375Z,15.75
2016-04-23T01:23:31.361Z,15.77
2016-04-23T01:24:31.334Z,15.9
2016-04-23T01:25:31.336Z,15.77
2016-04-23T01:26:31.308Z,15.8
2016-04-23T01:27:31.294Z,15.83
2016-04-23T01:28:31.281Z,15.73
2016-04-23T01:29:31.269Z,15.68
2016-04-23T01:30:31.255Z,15.75
2016-04-23T01:31:31.242Z,15.79
2016-04-23T01:32:31.230Z,15.83
2016-04-23T01:33:31.202Z,15.84
2016-04-23T01:34:31.172Z,15.83
2016-04-23T01:35:31.191Z,15.75
2016-04-23T01:36:31.163Z,15.9
2016-04-23T01:37:31.133Z,15.82
2016-04-23T01:38:31.136Z,15.92
2016-04-23T01:39:31.124Z,15.9
2016-04-23T01:40:31.095Z,15.82
2016-04-23T01:41:31.098Z,15.9
2016-04-23T01:42:31.069Z,15.92
2016-04-23T01:43:31.040Z,15.98
2016-04-23T01:44:31.027Z,15.98
2016-04-23T01:45:31.030Z,16
2016-04-23T01:46:31.033Z,15.88
2016-04-23T01:47:31.004Z,15.91
2016-04-23T01:48:30.976Z,15.83
2016-04-23T01:49:30.979Z,15.8
2016-04-23T01:50:30.950Z,15.86
2016-04-23T01:51:30.937Z,16.02
2016-04-23T01:52:30.923Z,16.09
2016-04-23T01:53:30.912Z,16.08
2016-04-23T01:54:30.883Z,16.12
2016-04-23T01:55:30.869Z,16.09
2016-04-23T01:56:30.857Z,15.95
2016-04-23T01:57:30.859Z,16.05
2016-04-23T01:58:30.831Z,16
2016-04-23T01:59:30.802Z,15.98
2016-04-23T02:00:30.806Z,16.13
2016-04-23T02:01:30.808Z,16.09
2016-04-23T02:02:30.607Z,15.95
2016-04-23T02:03:30.750Z,16.02
2016-04-23T02:04:30.737Z,16.01
2016-04-23T02:05:30.725Z,16.04
2016-04-23T02:06:30.711Z,16.01
2016-04-23T02:07:30.699Z,16.08
2016-04-23T02:08:30.702Z,16.15
2016-04-23T02:09:30.674Z,16.15
2016-04-23T02:10:30.644Z,16.1
2016-04-23T02:11:30.474Z,16.13
2016-04-23T02:12:30.619Z,16.12
2016-04-23T02:13:30.637Z,16.08
2016-04-23T02:14:30.593Z,15.95
2016-04-23T02:15:30.564Z,15.98
2016-04-23T02:16:30.567Z,15.95
2016-04-23T02:17:30.554Z,16.09
2016-04-23T02:18:30.525Z,16.04
2016-04-23T02:19:30.512Z,16.1
2016-04-23T02:20:30.499Z,15.91
2016-04-23T02:21:30.502Z,15.91
2016-04-23T02:22:30.483Z,15.91
2016-04-23T02:23:30.455Z,15.92
2016-04-23T02:24:30.442Z,15.91
2016-04-23T02:25:30.413Z,15.97
2016-04-23T02:26:30.416Z,15.91
2016-04-23T02:27:30.402Z,15.91
2016-04-23T02:28:30.375Z,15.84
2016-04-23T02:29:30.361Z,15.95
2016-04-23T02:30:30.349Z,15.95
2016-04-23T02:31:30.336Z,16.04
2016-04-23T02:32:30.307Z,16.02
2016-04-23T02:33:30.294Z,16.1
2016-04-23T02:34:30.296Z,16.09
2016-04-23T02:35:30.268Z,15.94
2016-04-23T02:36:30.255Z,15.86
2016-04-23T02:37:30.243Z,15.92
2016-04-23T02:38:30.245Z,15.88
2016-04-23T02:39:30.216Z,15.8
2016-04-23T02:40:30.188Z,15.9
2016-04-23T02:41:30.175Z,15.97
2016-04-23T02:42:30.162Z,15.91
2016-04-23T02:43:30.165Z,15.92
2016-04-23T02:44:30.137Z,15.91
2016-04-23T02:45:30.123Z,15.97
2016-04-23T02:46:30.110Z,16.09
2016-04-23T02:47:30.098Z,16.04
2016-04-23T02:48:30.084Z,16.08
2016-04-23T02:49:30.056Z,15.97
2016-04-23T02:50:30.042Z,16.01
2016-04-23T02:51:30.031Z,16.02
2016-04-23T02:52:30.017Z,15.91
2016-04-23T02:53:30.003Z,16
2016-04-23T02:54:29.992Z,15.97
2016-04-23T02:55:29.978Z,15.86
2016-04-23T02:56:29.966Z,15.79
2016-04-23T02:57:29.952Z,15.9
2016-04-23T02:58:29.925Z,15.95
2016-04-23T02:59:29.927Z,15.9
2016-04-23T03:00:29.897Z,15.82
2016-04-23T03:01:29.885Z,15.83
2016-04-23T03:02:29.872Z,15.77
2016-04-23T03:03:29.844Z,15.76
2016-04-23T03:04:29.830Z,15.77
2016-04-23T03:05:29.833Z,15.82
2016-04-23T03:06:29.821Z,15.94
2016-04-23T03:07:29.823Z,15.94
2016-04-23T03:08:29.794Z,15.86
2016-04-23T03:09:29.766Z,15.8
2016-04-23T03:10:29.800Z,15.82
2016-04-23T03:11:29.740Z,15.82
2016-04-23T03:12:29.742Z,15.8
2016-04-23T03:13:29.699Z,15.86
2016-04-23T03:14:29.701Z,15.76
2016-04-23T03:15:29.687Z,15.88
2016-04-23T03:16:29.660Z,15.98
2016-04-23T03:17:29.647Z,15.9
2016-04-23T03:18:29.650Z,16.09
2016-04-23T03:19:29.637Z,16.1
2016-04-23T03:20:29.609Z,16.04
2016-04-23T03:21:29.595Z,16.02
2016-04-23T03:22:29.567Z,15.92
2016-04-23T03:23:29.584Z,15.88
2016-04-23T03:24:29.556Z,15.97
2016-04-23T03:25:29.527Z,16.02
2016-04-23T03:26:29.499Z,15.97
2016-04-23T03:27:29.487Z,15.95
2016-04-23T03:28:29.505Z,15.98
2016-04-23T03:29:29.461Z,16
2016-04-23T03:30:29.463Z,16.13
2016-04-23T03:31:29.435Z,16.16
2016-04-23T03:32:29.438Z,16.08
2016-04-23T03:33:29.408Z,16.08
2016-04-23T03:34:29.396Z,16.04
2016-04-23T03:35:29.414Z,16.08
2016-04-23T03:36:29.370Z,15.92
2016-04-23T03:37:29.357Z,15.77
2016-04-23T03:38:29.329Z,16.02
2016-04-23T03:39:29.316Z,16.04
2016-04-23T03:40:29.318Z,16.09
2016-04-23T03:41:29.320Z,16.02
2016-04-23T03:42:29.276Z,15.98
2016-04-23T03:43:29.249Z,15.9
2016-04-23T03:44:29.251Z,15.84
2016-04-23T03:45:29.223Z,16
2016-04-23T03:46:29.209Z,15.91
2016-04-23T03:47:29.040Z,15.9
2016-04-23T03:48:29.184Z,16.04
2016-04-23T03:49:29.170Z,16
2016-04-23T03:50:29.157Z,16.08
2016-04-23T03:51:29.145Z,16.1
2016-04-23T03:52:29.117Z,16.13
2016-04-23T03:53:29.119Z,16.13
2016-04-23T03:54:29.090Z,16.13
2016-04-23T03:55:29.081Z,16.16
2016-04-23T03:56:29.052Z,16.12
2016-04-23T03:57:29.055Z,16
2016-04-23T03:58:29.026Z,15.98
2016-04-23T03:59:29.014Z,16.16
2016-04-23T04:00:29.015Z,16.09
2016-04-23T04:01:28.988Z,16.15
2016-04-23T04:02:28.976Z,16.12
2016-04-23T04:03:28.962Z,16.05
2016-04-23T04:04:28.933Z,16.16
2016-04-23T04:05:28.920Z,16.08
2016-04-23T04:06:28.923Z,16.02
2016-04-23T04:07:28.895Z,15.97
2016-04-23T04:08:28.898Z,15.91
2016-04-23T04:09:28.884Z,15.92
2016-04-23T04:10:28.855Z,15.97
2016-04-23T04:11:28.843Z,16.02
2016-04-23T04:12:28.845Z,16.13
2016-04-23T04:13:28.801Z,16.13
2016-04-23T04:14:28.804Z,16.05
2016-04-23T04:15:28.775Z,16.04
2016-04-23T04:16:28.763Z,16.17
2016-04-23T04:17:28.594Z,16.09
2016-04-23T04:18:28.736Z,16.16
2016-04-23T04:19:28.724Z,16.09
2016-04-23T04:20:28.710Z,16.16
2016-04-23T04:21:28.697Z,16.04
2016-04-23T04:22:28.685Z,15.86
2016-04-23T04:23:28.657Z,15.91
2016-04-23T04:24:28.644Z,15.98
2016-04-23T04:25:28.615Z,15.95
2016-04-23T04:26:28.618Z,16.12
2016-04-23T04:27:28.604Z,15.95
2016-04-23T04:28:28.591Z,15.82
2016-04-23T04:29:28.579Z,15.84
2016-04-23T04:30:28.551Z,15.79
2016-04-23T04:31:28.554Z,15.73
2016-04-23T04:32:28.524Z,15.68
2016-04-23T04:33:28.512Z,15.73
2016-04-23T04:34:28.514Z,15.73
2016-04-23T04:35:28.485Z,15.8
2016-04-23T04:36:28.472Z,15.82
2016-04-23T04:37:28.444Z,15.8
2016-04-23T04:38:28.415Z,15.82
2016-04-23T04:39:28.418Z,15.94
2016-04-23T04:40:28.406Z,16.04
2016-04-23T04:41:28.408Z,16.04
2016-04-23T04:42:28.395Z,15.94
2016-04-23T04:43:28.366Z,16.02
2016-04-23T04:44:28.353Z,15.98
2016-04-23T04:45:28.356Z,15.92
2016-04-23T04:46:28.328Z,15.91
2016-04-23T04:47:28.300Z,15.9
2016-04-23T04:48:28.286Z,15.9
2016-04-23T04:49:28.148Z,15.95
2016-04-23T04:50:28.260Z,16.04
2016-04-23T04:51:28.247Z,16.05
2016-04-23T04:52:28.218Z,16.16
2016-04-23T04:53:28.221Z,16.04
2016-04-23T04:54:28.193Z,16.01
2016-04-23T04:55:28.196Z,15.95
2016-04-23T04:56:28.152Z,16.08
2016-04-23T04:57:28.154Z,16.16
2016-04-23T04:58:28.141Z,16.2
2016-04-23T04:59:28.128Z,16.24
2016-04-23T05:00:28.115Z,16.29
2016-04-23T05:01:28.102Z,16.28
2016-04-23T05:02:28.074Z,16.28
2016-04-23T05:03:28.077Z,16.35
2016-04-23T05:04:28.048Z,16.21
2016-04-23T05:05:28.035Z,16.24
2016-04-23T05:06:28.022Z,16.31
2016-04-23T05:07:28.010Z,16.24
2016-04-23T05:08:27.980Z,16.1
2016-04-23T05:09:27.983Z,16.26
2016-04-23T05:10:27.954Z,16.24
2016-04-23T05:11:27.942Z,16.32
2016-04-23T05:12:27.928Z,16.32
2016-04-23T05:13:27.900Z,16.36
2016-04-23T05:14:27.903Z,16.36
2016-04-23T05:15:27.875Z,16.31
2016-04-23T05:16:27.861Z,16.42
2016-04-23T05:17:27.864Z,16.33
2016-04-23T05:18:27.820Z,16.28
2016-04-23T05:19:27.823Z,16.26
2016-04-23T05:20:27.810Z,16.26
2016-04-23T05:21:27.813Z,16.17
2016-04-23T05:22:27.783Z,16.09
2016-04-23T05:23:27.771Z,15.92
2016-04-23T05:24:27.757Z,15.86
2016-04-23T05:25:27.729Z,15.79
2016-04-23T05:26:27.732Z,15.97
2016-04-23T05:27:27.719Z,15.91
2016-04-23T05:28:27.691Z,15.92
2016-04-23T05:29:27.677Z,16
2016-04-23T05:30:27.665Z,16.21
2016-04-23T05:31:27.651Z,16.17
2016-04-23T05:32:27.623Z,16.2
2016-04-23T05:33:27.626Z,16.2
2016-04-23T05:34:27.613Z,16.09
2016-04-23T05:35:27.584Z,16.08
2016-04-23T05:36:27.571Z,16.01
2016-04-23T05:37:27.559Z,16.1
2016-04-23T05:38:27.529Z,16.09
2016-04-23T05:39:27.532Z,16.04
2016-04-23T05:40:27.520Z,16.05
2016-04-23T05:41:27.507Z,16
2016-04-23T05:42:27.478Z,16.1
2016-04-23T05:43:27.465Z,16.15
2016-04-23T05:44:27.453Z,16.26
2016-04-23T05:45:27.439Z,16.21
2016-04-23T05:46:27.442Z,16.1
2016-04-23T05:47:27.397Z,16.04
2016-04-23T05:48:27.386Z,16.02
2016-04-23T05:49:27.372Z,16.08
2016-04-23T05:50:27.375Z,16.13
2016-04-23T05:51:27.347Z,16.15
2016-04-23T05:52:27.333Z,16.29
2016-04-23T05:53:27.320Z,16.29
2016-04-23T05:54:27.307Z,16.35
2016-04-23T05:55:27.279Z,16.29
2016-04-23T05:56:27.266Z,16.29
2016-04-23T05:57:27.252Z,16.29
2016-04-23T05:58:27.255Z,16.16
2016-04-23T05:59:27.227Z,16.31
2016-04-23T06:00:27.214Z,16.31
2016-04-23T06:01:27.201Z,16.29
2016-04-23T06:02:27.188Z,16.35
2016-04-23T06:03:27.159Z,16.12
2016-04-23T06:04:27.194Z,16.05
2016-04-23T06:05:27.134Z,16.02
2016-04-23T06:06:27.121Z,15.91
2016-04-23T06:07:27.093Z,15.86
2016-04-23T06:08:27.095Z,16.01
2016-04-23T06:09:27.067Z,16.08
2016-04-23T06:10:27.053Z,16.15
2016-04-23T06:11:27.056Z,16.16
2016-04-23T06:12:27.043Z,16.28
2016-04-23T06:13:27.014Z,16.28
2016-04-23T06:14:27.001Z,16.32
2016-04-23T06:15:26.989Z,16.39
2016-04-23T06:16:26.976Z,16.41
2016-04-23T06:17:26.963Z,16.26
2016-04-23T06:18:26.794Z,16.21
2016-04-23T06:19:26.936Z,16.21
2016-04-23T06:20:26.940Z,16.28
2016-04-23T06:21:26.896Z,16.32
2016-04-23T06:22:26.883Z,16.28
2016-04-23T06:23:26.870Z,16.21
2016-04-23T06:24:26.857Z,16.38
2016-04-23T06:25:26.844Z,16.32
2016-04-23T06:26:26.846Z,16.23
2016-04-23T06:27:26.818Z,16.35
2016-04-23T06:28:26.789Z,16.38
2016-04-23T06:29:26.792Z,16.41
2016-04-23T06:30:26.779Z,16.29
2016-04-23T06:31:26.751Z,16.24
2016-04-23T06:32:26.738Z,16.16
2016-04-23T06:33:26.756Z,16.39
2016-04-23T06:34:26.712Z,16.5
2016-04-23T06:35:26.698Z,16.5
2016-04-23T06:36:26.671Z,16.39
2016-04-23T06:37:26.674Z,16.53
2016-04-23T06:38:26.645Z,16.47
2016-04-23T06:39:26.632Z,16.28
2016-04-23T06:40:26.634Z,16.49
2016-04-23T06:41:26.606Z,16.42
2016-04-23T06:42:26.592Z,16.28
2016-04-23T06:43:26.595Z,16.47
2016-04-23T06:44:26.551Z,16.58
2016-04-23T06:45:26.539Z,16.5
2016-04-23T06:46:26.525Z,16.53
2016-04-23T06:47:26.512Z,16.6
2016-04-23T06:48:26.375Z,16.75
2016-04-23T06:49:26.486Z,16.89
2016-04-23T06:50:26.489Z,16.64
2016-04-23T06:51:26.444Z,16.72
2016-04-23T06:52:26.448Z,16.57
2016-04-23T06:53:26.451Z,16.65
2016-04-23T06:54:26.453Z,16.6
2016-04-23T06:55:26.394Z,16.6
2016-04-23T06:56:26.396Z,16.74
2016-04-23T06:57:26.367Z,16.69
2016-04-23T06:58:26.355Z,16.58
2016-04-23T06:59:26.341Z,16.76
2016-04-23T07:00:26.329Z,16.76
2016-04-23T07:01:26.316Z,16.56
2016-04-23T07:02:26.131Z,16.47
2016-04-23T07:03:26.321Z,16.65
2016-04-23T07:04:26.277Z,16.71
2016-04-23T07:05:26.263Z,16.53
2016-04-23T07:06:26.251Z,16.39
2016-04-23T07:07:26.268Z,16.41
2016-04-23T07:08:26.226Z,16.54
2016-04-23T07:09:26.197Z,16.61
2016-04-23T07:10:26.184Z,16.64
2016-04-23T07:11:26.171Z,16.38
2016-04-23T07:12:26.157Z,16.36
2016-04-23T07:13:26.145Z,16.31
2016-04-23T07:14:26.132Z,16.39
2016-04-23T07:15:26.103Z,16.53
2016-04-23T07:16:26.090Z,16.71
2016-04-23T07:17:26.078Z,16.74
2016-04-23T07:18:26.112Z,16.84
2016-04-23T07:19:26.051Z,16.84
2016-04-23T07:20:26.039Z,17.01
2016-04-23T07:21:26.025Z,17.09
2016-04-23T07:22:26.028Z,17.02
2016-04-23T07:23:26.000Z,17.04
2016-04-23T07:24:25.972Z,16.93
2016-04-23T07:25:25.974Z,16.91
2016-04-23T07:26:25.945Z,16.91
2016-04-23T07:27:25.932Z,16.97
2016-04-23T07:28:25.919Z,17.06
2016-04-23T07:29:25.907Z,17.16
2016-04-23T07:30:25.894Z,17.24
2016-04-23T07:31:25.880Z,17.08
2016-04-23T07:32:25.852Z,16.87
2016-04-23T07:33:25.855Z,17.01
2016-04-23T07:34:25.841Z,17.19
2016-04-23T07:35:25.813Z,17.24
2016-04-23T07:36:27.988Z,17.31
2016-04-23T07:37:25.788Z,17.19
2016-04-23T07:38:25.790Z,17.33
2016-04-23T07:39:25.762Z,17.38
2016-04-23T07:40:25.764Z,17.36
2016-04-23T07:41:25.767Z,17.26
2016-04-23T07:42:25.799Z,17.15
2016-04-23T07:43:25.815Z,17.08
2016-04-23T07:44:25.877Z,16.99
2016-04-23T07:45:25.892Z,16.97
2016-04-23T07:46:25.901Z,17.12
2016-04-23T07:47:25.905Z,17.09
2016-04-23T07:48:25.908Z,17.11
2016-04-23T07:49:25.911Z,17.11
2016-04-23T07:50:25.915Z,17.26
2016-04-23T07:51:25.879Z,17.36
2016-04-23T07:52:25.903Z,17.57
2016-04-23T07:53:25.896Z,17.64
2016-04-23T07:54:25.888Z,17.63
2016-04-23T07:55:25.865Z,17.86
2016-04-23T07:56:25.855Z,18.05
2016-04-23T07:57:25.845Z,18.25
2016-04-23T07:58:25.850Z,18.34
2016-04-23T07:59:25.823Z,18.38
2016-04-23T08:00:25.828Z,18.45
2016-04-23T08:01:25.815Z,18.65
2016-04-23T08:02:25.787Z,18.47
2016-04-23T08:03:25.792Z,18.52
2016-04-23T08:04:25.748Z,18.6
2016-04-23T08:05:25.752Z,18.63
2016-04-23T08:06:25.816Z,18.5
2016-04-23T08:07:25.727Z,18.52
2016-04-23T08:08:25.714Z,18.63
2016-04-23T08:09:25.700Z,18.5
2016-04-23T08:10:25.673Z,18.28
2016-04-23T08:11:25.675Z,18.38
2016-04-23T08:12:25.678Z,18.43
2016-04-23T08:13:25.634Z,18.45
2016-04-23T08:14:25.668Z,18.37
2016-04-23T08:15:25.624Z,18.26
2016-04-23T08:16:29.127Z,18.26
2016-04-23T08:17:25.582Z,18.01
2016-04-23T08:18:25.601Z,18.1
2016-04-23T08:19:25.728Z,18.26
2016-04-23T08:20:25.543Z,18.44
2016-04-23T08:21:25.530Z,18.63
2016-04-23T08:22:25.518Z,18.71
2016-04-23T08:23:25.489Z,18.83
2016-04-23T08:24:25.491Z,18.65
2016-04-23T08:25:25.495Z,18.47
2016-04-23T08:26:25.466Z,18.8
2016-04-23T08:27:25.469Z,19.12
2016-04-23T08:28:25.440Z,19.22
2016-04-23T08:29:25.432Z,19.04
2016-04-23T08:30:25.418Z,18.96
2016-04-23T08:31:25.407Z,19.24
2016-04-23T08:32:25.393Z,19.36
2016-04-23T08:33:25.396Z,19.52
2016-04-23T08:34:25.367Z,19.55
2016-04-23T08:35:25.354Z,19.64
2016-04-23T08:36:25.357Z,19.36
2016-04-23T08:37:25.344Z,19.26
2016-04-23T08:38:25.316Z,19.62
2016-04-23T08:39:25.303Z,19.4
2016-04-23T08:40:25.289Z,19.52
2016-04-23T08:41:25.278Z,19.74
2016-04-23T08:42:25.280Z,20.04
2016-04-23T08:43:25.266Z,19.62
2016-04-23T08:44:25.239Z,19.67
2016-04-23T08:45:25.241Z,19.22
2016-04-23T08:46:25.227Z,19.31
2016-04-23T08:47:25.214Z,19.29
2016-04-23T08:48:25.593Z,19.47
2016-04-23T08:49:25.174Z,19.66
2016-04-23T08:50:25.176Z,19.99
2016-04-23T08:51:25.148Z,19.66
2016-04-23T08:52:25.166Z,19.91
2016-04-23T08:53:25.137Z,19.88
2016-04-23T08:54:25.108Z,20.11
2016-04-23T08:55:25.096Z,20.04
2016-04-23T08:56:25.083Z,20.19
2016-04-23T08:57:25.102Z,20.56
2016-04-23T08:58:25.073Z,20.62
2016-04-23T08:59:25.076Z,20.72
2016-04-23T09:00:25.046Z,20.55
2016-04-23T09:01:25.034Z,20.77
2016-04-23T09:02:25.037Z,20.87
2016-04-23T09:03:25.007Z,21.06
2016-04-23T09:04:24.995Z,20.37
2016-04-23T09:05:24.998Z,19.89
2016-04-23T09:06:24.970Z,19.96
2016-04-23T09:07:25.003Z,20.21
2016-04-23T09:08:24.959Z,20.48
2016-04-23T09:09:24.945Z,20.7
2016-04-23T09:10:24.933Z,20.5
2016-04-23T09:11:24.920Z,20.26
2016-04-23T09:12:24.907Z,20.28
2016-04-23T09:13:24.925Z,20.31
2016-04-23T09:14:24.881Z,19.85
2016-04-23T09:15:24.869Z,19.54
2016-04-23T09:16:24.855Z,20.13
2016-04-23T09:17:24.858Z,20.41
2016-04-23T09:18:24.845Z,20.24
2016-04-23T09:19:24.817Z,20.32
2016-04-23T09:20:24.819Z,20.28
2016-04-23T09:21:25.791Z,20.4
2016-04-23T09:22:24.808Z,20.51
2016-04-23T09:23:24.780Z,20.43
2016-04-23T09:24:24.768Z,20.6
2016-04-23T09:25:24.755Z,20.82
2016-04-23T09:26:24.742Z,20.85
2016-04-23T09:27:24.760Z,21.22
2016-04-23T09:28:24.731Z,21.4
2016-04-23T09:29:24.735Z,21.57
2016-04-23T09:30:24.690Z,21.37
2016-04-23T09:31:24.693Z,21.22
2016-04-23T09:32:24.680Z,21.4
2016-04-23T09:33:24.729Z,20.82
2016-04-23T09:34:24.654Z,20.77
2016-04-23T09:35:24.813Z,20.84
2016-04-23T09:36:24.487Z,21.18
2016-04-23T09:37:24.615Z,20.96
2016-04-23T09:38:24.601Z,20.9
2016-04-23T09:39:24.604Z,21.14
2016-04-23T09:40:24.607Z,20.66
2016-04-23T09:41:24.376Z,20.72
2016-04-23T09:42:24.581Z,21.27
2016-04-23T09:43:24.412Z,21.29
2016-04-23T09:44:24.525Z,21.77
2016-04-23T09:45:24.370Z,22.23
2016-04-23T09:46:24.514Z,22.53
2016-04-23T09:47:24.501Z,22.72
2016-04-23T09:48:24.504Z,22.5
2016-04-23T09:49:24.492Z,22.69
2016-04-23T09:50:24.478Z,22.69
2016-04-23T09:51:24.512Z,22.59
2016-04-23T09:52:24.452Z,22.7
2016-04-23T09:53:24.439Z,22.75
2016-04-23T09:54:24.427Z,22.75
2016-04-23T09:55:24.413Z,22.75
2016-04-23T09:56:24.400Z,22.87
2016-04-23T09:57:24.294Z,22.98
2016-04-23T09:58:24.374Z,23.28
2016-04-23T09:59:24.377Z,23.08
2016-04-23T10:00:24.380Z,23.5
2016-04-23T10:01:24.368Z,23.31
2016-04-23T10:02:24.449Z,23.39
2016-04-23T10:03:24.341Z,23.58
2016-04-23T10:04:24.328Z,23.71
2016-04-23T10:05:24.299Z,22.91
2016-04-23T10:06:24.302Z,22.91
2016-04-23T10:07:24.290Z,23
2016-04-23T10:08:25.276Z,23.44
2016-04-23T10:09:24.279Z,23.27
2016-04-23T10:10:24.267Z,22.48
2016-04-23T10:11:24.269Z,22.28
2016-04-23T10:12:24.240Z,22.28
2016-04-23T10:13:24.243Z,22.29
2016-04-23T10:14:24.230Z,22.68
2016-04-23T10:15:24.233Z,22.7
2016-04-23T10:16:24.579Z,22.8
2016-04-23T10:17:24.066Z,22.9
2016-04-23T10:18:24.194Z,22.53
2016-04-23T10:19:24.181Z,22.8
2016-04-23T10:20:24.169Z,23.36
2016-04-23T10:21:24.155Z,23.4
2016-04-23T10:22:24.293Z,23.54
2016-04-23T10:23:24.148Z,23.96
2016-04-23T10:24:24.136Z,23.24
2016-04-23T10:25:24.122Z,23.86
2016-04-23T10:26:24.109Z,24.13
2016-04-23T10:27:24.111Z,23.87
2016-04-23T10:28:24.099Z,23.12
2016-04-23T10:29:24.086Z,23.2
2016-04-23T10:30:24.088Z,23.31
2016-04-23T10:31:24.076Z,23.32
2016-04-23T10:32:24.063Z,23.83
2016-04-23T10:33:24.066Z,23.55
2016-04-23T10:34:24.927Z,22.54
2016-04-23T10:35:24.040Z,22.9
2016-04-23T10:36:24.042Z,23.25
2016-04-23T10:37:24.013Z,23.62
2016-04-23T10:38:24.016Z,23.66
2016-04-23T10:39:24.003Z,23.58
2016-04-23T10:40:24.006Z,23.46
2016-04-23T10:41:23.993Z,23.09
2016-04-23T10:42:23.981Z,22.98
2016-04-23T10:43:23.967Z,23.62
2016-04-23T10:44:23.939Z,22.88
2016-04-23T10:45:23.942Z,22.83
2016-04-23T10:46:23.945Z,23.43
2016-04-23T10:47:23.915Z,23.92
2016-04-23T10:48:23.762Z,23.27
2016-04-23T10:49:23.953Z,23.12
2016-04-23T10:50:23.940Z,23.95
2016-04-23T10:51:23.880Z,23.31
2016-04-23T10:52:23.867Z,22.94
2016-04-23T10:53:23.885Z,23.41
2016-04-23T10:54:23.857Z,24.01
2016-04-23T10:55:23.844Z,24.91
2016-04-23T10:56:23.846Z,25.29
2016-04-23T10:57:23.833Z,25.38
2016-04-23T10:58:23.836Z,25.31
2016-04-23T10:59:23.820Z,25.87
2016-04-23T11:00:23.823Z,27.08
2016-04-23T11:01:23.794Z,28.38
2016-04-23T11:02:23.813Z,28.78
2016-04-23T11:03:23.784Z,26.66
2016-04-23T11:04:24.977Z,25.44
2016-04-23T11:05:23.758Z,23.92
2016-04-23T11:06:23.761Z,23.55
2016-04-23T11:07:23.764Z,23.99
2016-04-23T11:08:23.735Z,23.98
2016-04-23T11:09:23.738Z,24.1
2016-04-23T11:10:23.724Z,23.54
2016-04-23T11:11:23.727Z,23.86
2016-04-23T11:12:23.730Z,24.58
2016-04-23T11:13:23.718Z,24.43
2016-04-23T11:14:23.721Z,23.43
2016-04-23T11:15:23.706Z,23.28
2016-04-23T11:16:23.678Z,23.63
2016-04-23T11:17:23.681Z,24.06
2016-04-23T11:18:23.684Z,23.92
2016-04-23T11:19:23.421Z,24.13
2016-04-23T11:20:23.721Z,24.3
2016-04-23T11:21:23.645Z,24.39
2016-04-23T11:22:23.632Z,23.87
2016-04-23T11:23:23.666Z,24.13
2016-04-23T11:24:23.622Z,22.98
2016-04-23T11:25:23.609Z,21.76
2016-04-23T11:26:23.596Z,22.04
2016-04-23T11:27:23.599Z,21.82
2016-04-23T11:28:23.586Z,22.18
2016-04-23T11:29:23.589Z,22.07
2016-04-23T11:30:23.560Z,21.73
2016-04-23T11:31:23.547Z,22.48
2016-04-23T11:32:23.534Z,22.39
2016-04-23T11:33:23.536Z,22.81
2016-04-23T11:34:23.711Z,22.91
2016-04-23T11:35:23.652Z,22.69
2016-04-23T11:36:23.514Z,23.18
2016-04-23T11:37:23.501Z,23.63
2016-04-23T11:38:23.488Z,23.92
2016-04-23T11:39:23.491Z,24.74
2016-04-23T11:40:23.493Z,24.51
2016-04-23T11:41:23.465Z,24.5
2016-04-23T11:42:23.467Z,24.5
2016-04-23T11:43:23.438Z,24.84
2016-04-23T11:44:23.441Z,23.83
2016-04-23T11:45:23.444Z,23.39
2016-04-23T11:46:23.416Z,23.41
2016-04-23T11:47:23.418Z,23.66
2016-04-23T11:48:23.405Z,23.46
2016-04-23T11:49:23.737Z,23.54
2016-04-23T11:50:23.786Z,23.48
2016-04-23T11:51:23.398Z,23.12
2016-04-23T11:52:23.385Z,23.63
2016-04-23T11:53:23.357Z,23.4
2016-04-23T11:54:23.359Z,23.24
2016-04-23T11:55:23.345Z,23.28
2016-04-23T11:56:23.317Z,23.48
2016-04-23T11:57:23.320Z,24.36
2016-04-23T11:58:23.323Z,24.65
2016-04-23T11:59:23.310Z,24.84
2016-04-23T12:00:23.313Z,24.76
2016-04-23T12:01:23.284Z,24.35
2016-04-23T12:02:23.287Z,24.17
2016-04-23T12:03:23.274Z,23.76
2016-04-23T12:04:23.574Z,22.94
2016-04-23T12:05:23.247Z,22.73
2016-04-23T12:06:23.250Z,23
2016-04-23T12:07:23.238Z,23.15
2016-04-23T12:08:23.225Z,22.6
2016-04-23T12:09:23.243Z,22.72
2016-04-23T12:10:23.215Z,23.17
2016-04-23T12:11:23.202Z,22.93
2016-04-23T12:12:23.204Z,22.39
2016-04-23T12:13:23.207Z,21.51
2016-04-23T12:14:23.178Z,22.1
2016-04-23T12:15:23.181Z,22.23
2016-04-23T12:16:23.168Z,22.48
2016-04-23T12:17:23.155Z,22.8
2016-04-23T12:18:23.142Z,23.36
2016-04-23T12:19:23.129Z,23.69
2016-04-23T12:20:23.334Z,23.62
2016-04-23T12:21:23.104Z,23.98
2016-04-23T12:22:23.106Z,23.98
2016-04-23T12:23:23.078Z,23.43
2016-04-23T12:24:23.080Z,23.51
2016-04-23T12:25:23.083Z,23.86
2016-04-23T12:26:23.086Z,23.62
2016-04-23T12:27:23.057Z,23.8
2016-04-23T12:28:23.060Z,24.02
2016-04-23T12:29:23.031Z,24.01
2016-04-23T12:30:23.049Z,24.18
2016-04-23T12:31:23.036Z,24.38
2016-04-23T12:32:23.024Z,23.09
2016-04-23T12:33:22.995Z,22.84
2016-04-23T12:34:23.014Z,22.35
2016-04-23T12:35:23.797Z,22.65
2016-04-23T12:36:22.972Z,22.75
2016-04-23T12:37:22.991Z,22.99
2016-04-23T12:38:22.961Z,23
2016-04-23T12:39:22.949Z,23.4
2016-04-23T12:40:22.951Z,25.23
2016-04-23T12:41:22.923Z,26.68
2016-04-23T12:42:22.926Z,27.68
2016-04-23T12:43:22.913Z,28.94
2016-04-23T12:44:22.899Z,30.59
2016-04-23T12:45:22.887Z,31.31
2016-04-23T12:46:22.921Z,32.29
2016-04-23T12:47:22.908Z,32.6
2016-04-23T12:48:22.879Z,34.57
2016-04-23T12:49:22.101Z,34.4
2016-04-23T12:50:22.993Z,34.4
2016-04-23T12:51:22.871Z,36.39
2016-04-23T12:52:22.874Z,36.46
2016-04-23T12:53:22.862Z,34.35
2016-04-23T12:54:22.864Z,32.27
2016-04-23T12:55:22.867Z,32.49
2016-04-23T12:56:22.870Z,32.43